Flag for USA

Past Weather in Nashville, Tennessee, USA — October 2019

Currently: 47 °F. Overcast. (Weather station: Nashville International Airport, USA). See more current weather

October 2019 Weather in Nashville — Graph

°F

High & Low Weather Summary for October 2019

 TemperatureHumidityPressure
High97 °F (Oct 2, 1:53 pm)96% (Oct 28, 5:30 am)30.36 "Hg (Oct 28, 5:30 am)
Low35 °F (Oct 31, 11:53 pm)21% (Oct 23, 12:53 pm)29.58 "Hg (Oct 26, 2:53 pm)
Average63 °F69%30.03 "Hg
* Reported Oct 1 12:53 am — Oct 31 11:53 pm, Nashville. Weather by CustomWeather, © 2020

Note: Actual official high and low records may vary slightly from our data, if they occured in-between our weather recording intervals... More about our weather records

Nashville Weather History for October 1, 2019

Scroll right to see more
 ConditionsComfort  
Time TempWeatherWind HumidityBarometerVisibility
12:53 am
Tue, Oct 1
75 °FClear.3 mph76%30.04 "Hg10 mi
1:53 am75 °FClear.3 mph74%30.04 "Hg10 mi
2:53 am73 °FClear.No wind79%30.04 "Hg10 mi
3:53 am72 °FClear.No wind81%30.05 "Hg10 mi
4:53 am71 °FClear.3 mph84%30.06 "Hg10 mi
5:53 am70 °FSunny.No wind84%30.08 "Hg10 mi
6:53 am71 °FPassing clouds.3 mph81%30.10 "Hg8 mi
7:53 am76 °FPassing clouds.No wind74%30.12 "Hg9 mi
8:53 am83 °FPassing clouds.No wind59%30.12 "Hg10 mi
9:53 am88 °FPassing clouds.No wind48%30.13 "Hg10 mi
10:53 am91 °FScattered clouds.5 mph39%30.11 "Hg10 mi
11:53 am94 °FScattered clouds.3 mph37%30.09 "Hg10 mi
12:53 pm95 °FScattered clouds.7 mph35%30.07 "Hg10 mi
1:53 pm96 °FBroken clouds.6 mph32%30.05 "Hg10 mi
2:53 pm96 °FPartly sunny.3 mph32%30.03 "Hg10 mi
3:53 pm96 °FPartly sunny.3 mph30%30.02 "Hg10 mi
4:53 pm96 °FPartly sunny.6 mph30%30.01 "Hg10 mi
5:53 pm94 °FPassing clouds.No wind32%30.01 "Hg10 mi
6:53 pm89 °FPassing clouds.3 mph41%30.00 "Hg10 mi
7:53 pm83 °FPassing clouds.3 mph53%30.00 "Hg10 mi
8:53 pm83 °FClear.No wind53%30.01 "Hg10 mi
9:53 pm80 °FClear.5 mph60%30.01 "Hg10 mi
10:53 pm77 °FClear.6 mph69%30.00 "Hg10 mi
11:53 pm74 °FClear.3 mph76%30.00 "Hg10 mi
Weather by CustomWeather, © 2020

See weather overview